createdAt,value
2022-09-13T00:01:06.610Z,62.45
2022-09-13T00:06:11.957Z,62.04
2022-09-13T00:11:18.564Z,62.18
2022-09-13T00:16:22.289Z,62.36
2022-09-13T00:21:27.786Z,62.65
2022-09-13T00:26:30.315Z,62.88
2022-09-13T00:31:32.884Z,62.59
2022-09-13T00:36:36.791Z,62.80
2022-09-13T00:41:39.678Z,62.78
2022-09-13T00:46:45.182Z,62.45
2022-09-13T00:51:50.479Z,63.11
2022-09-13T00:56:55.697Z,63.05
2022-09-13T01:01:58.991Z,63.19
2022-09-13T01:07:04.634Z,63.22
2022-09-13T01:12:10.172Z,63.48
2022-09-13T01:17:12.838Z,62.92
2022-09-13T01:22:35.194Z,63.71
2022-09-13T01:27:52.984Z,63.53
2022-09-13T01:33:02.729Z,64.21
2022-09-13T01:38:12.346Z,64.56
2022-09-13T01:43:23.937Z,63.92
2022-09-13T01:48:34.390Z,64.42
2022-09-13T01:53:42.060Z,63.93
2022-09-13T01:58:46.730Z,64.82
2022-09-13T02:03:53.765Z,64.68
2022-09-13T02:08:58.069Z,64.44
2022-09-13T02:14:05.729Z,64.49
2022-09-13T02:19:13.594Z,64.06
2022-09-13T02:24:17.707Z,64.37
2022-09-13T02:29:22.378Z,65.26
2022-09-13T02:34:28.630Z,66.09
2022-09-13T02:39:32.585Z,66.58
2022-09-13T02:44:37.589Z,66.14
2022-09-13T02:49:48.133Z,65.85
2022-09-13T02:54:52.685Z,65.48
2022-09-13T02:59:55.237Z,65.42
2022-09-13T03:04:59.426Z,65.53
2022-09-13T03:10:06.240Z,65.66
2022-09-13T03:15:15.306Z,65.62
2022-09-13T03:20:22.925Z,65.38
2022-09-13T03:25:31.966Z,66.50
2022-09-13T03:30:36.852Z,66.76
2022-09-13T03:35:43.981Z,66.59
2022-09-13T03:40:49.771Z,66.45
2022-09-13T03:45:54.303Z,66.52
2022-09-13T03:50:58.252Z,65.75
2022-09-13T03:56:00.861Z,66.70
2022-09-13T04:01:03.419Z,65.90
2022-09-13T04:06:07.817Z,66.18
2022-09-13T04:11:10.430Z,66.58
2022-09-13T04:16:13.134Z,66.14
2022-09-13T04:21:17.764Z,65.98
2022-09-13T04:26:20.293Z,65.73
2022-09-13T04:31:22.827Z,66.88
2022-09-13T04:36:26.810Z,66.78
2022-09-13T04:41:29.629Z,67.08
2022-09-13T04:46:32.124Z,67.00
2022-09-13T04:51:36.017Z,66.63
2022-09-13T04:56:38.553Z,66.65
2022-09-13T05:01:41.274Z,67.11
2022-09-13T05:06:45.321Z,68.28
2022-09-13T05:11:47.986Z,68.88
2022-09-13T05:16:50.534Z,68.25
2022-09-13T05:21:54.455Z,67.79
2022-09-13T05:26:56.996Z,67.31
2022-09-13T05:31:59.539Z,68.36
2022-09-13T05:37:03.457Z,68.39
2022-09-13T05:42:06.274Z,68.57
2022-09-13T05:47:08.816Z,68.14
2022-09-13T05:52:12.724Z,67.12
2022-09-13T05:57:15.233Z,66.66
2022-09-13T06:02:17.772Z,67.40
2022-09-13T06:07:21.713Z,67.37
2022-09-13T06:12:24.210Z,67.28
2022-09-13T06:17:26.713Z,66.39
2022-09-13T06:22:33.292Z,65.94
2022-09-13T06:27:35.865Z,66.51
2022-09-13T06:32:38.391Z,66.51
2022-09-13T06:37:42.305Z,66.47
2022-09-13T06:42:44.982Z,65.99
2022-09-13T06:47:47.510Z,65.64
2022-09-13T06:52:51.412Z,65.68
2022-09-13T06:57:54.174Z,65.79
2022-09-13T07:02:56.700Z,65.67
2022-09-13T07:08:00.983Z,65.63
2022-09-13T07:13:03.515Z,65.35
2022-09-13T07:18:07.640Z,65.50
2022-09-13T07:23:15.126Z,65.34
2022-09-13T07:28:19.498Z,64.92
2022-09-13T07:33:24.718Z,64.79
2022-09-13T07:38:28.925Z,65.13
2022-09-13T07:43:31.469Z,64.60
2022-09-13T07:48:35.089Z,64.91
2022-09-13T07:53:39.677Z,64.63
2022-09-13T07:58:43.243Z,64.29
2022-09-13T08:03:46.345Z,63.91
2022-09-13T08:08:50.662Z,63.53
2022-09-13T08:13:53.507Z,63.00
2022-09-13T08:18:56.869Z,62.83
2022-09-13T08:24:00.781Z,63.44
2022-09-13T08:29:04.796Z,63.64
2022-09-13T08:34:08.633Z,63.05
2022-09-13T08:39:13.781Z,62.81
2022-09-13T08:44:23.268Z,62.49
2022-09-13T08:49:29.246Z,61.91
2022-09-13T08:54:33.672Z,62.25
2022-09-13T08:59:46.331Z,62.19
2022-09-13T09:04:52.033Z,62.04
2022-09-13T09:09:57.481Z,61.96
2022-09-13T09:15:03.114Z,61.22
2022-09-13T09:20:10.620Z,61.01
2022-09-13T09:25:16.164Z,61.04
2022-09-13T09:30:18.845Z,61.05
2022-09-13T09:35:29.677Z,60.36
2022-09-13T09:40:35.020Z,60.75
2022-09-13T09:45:41.789Z,60.55
2022-09-13T09:50:46.545Z,59.95
2022-09-13T09:55:53.319Z,59.63
2022-09-13T10:00:57.022Z,59.07
2022-09-13T10:06:05.949Z,59.02
2022-09-13T10:11:10.752Z,58.94
2022-09-13T10:16:24.708Z,58.87
2022-09-13T10:21:28.137Z,58.25
2022-09-13T10:26:34.221Z,57.99
2022-09-13T10:31:38.217Z,57.44
2022-09-13T10:36:53.134Z,57.55
2022-09-13T10:41:59.776Z,56.94
2022-09-13T10:47:04.276Z,56.95
2022-09-13T10:52:24.516Z,56.57
2022-09-13T10:57:34.555Z,56.03
2022-09-13T11:02:47.811Z,56.24
2022-09-13T11:07:57.364Z,55.61
2022-09-13T11:13:07.665Z,55.32
2022-09-13T11:18:31.078Z,54.38
2022-09-13T11:23:40.910Z,53.84
2022-09-13T11:28:51.505Z,53.85
2022-09-13T11:33:59.923Z,53.59
2022-09-13T11:39:10.011Z,53.60
2022-09-13T11:44:26.772Z,53.61
2022-09-13T11:49:44.001Z,53.30
2022-09-13T11:54:54.120Z,52.99
2022-09-13T12:00:00.115Z,52.66
2022-09-13T12:05:21.653Z,52.21
2022-09-13T12:10:26.901Z,51.95
2022-09-13T12:15:36.322Z,52.06
2022-09-13T12:20:40.476Z,52.16
2022-09-13T12:25:47.329Z,52.16
2022-09-13T12:30:53.464Z,52.16
2022-09-13T12:36:06.916Z,52.33
2022-09-13T12:41:22.133Z,51.83
2022-09-13T12:46:37.840Z,51.15
2022-09-13T12:51:51.632Z,50.43
2022-09-13T12:57:05.529Z,50.57
2022-09-13T13:02:24.752Z,50.82
2022-09-13T13:07:28.487Z,50.85
2022-09-13T13:12:33.284Z,50.43
2022-09-13T13:17:38.633Z,49.70
2022-09-13T13:22:51.252Z,49.42
2022-09-13T13:27:55.096Z,49.32
2022-09-13T13:33:14.263Z,49.02
2022-09-13T13:38:17.793Z,48.94
2022-09-13T13:43:31.668Z,48.67
2022-09-13T13:48:39.884Z,48.62
2022-09-13T13:53:44.037Z,48.39
2022-09-13T13:58:48.449Z,48.30
2022-09-13T14:03:56.047Z,48.42
2022-09-13T14:09:12.492Z,48.46
2022-09-13T14:14:24.689Z,47.99
2022-09-13T14:19:29.620Z,48.13
2022-09-13T14:24:37.309Z,47.38
2022-09-13T14:29:40.543Z,47.17
2022-09-13T14:34:51.494Z,47.02
2022-09-13T14:39:57.461Z,47.13
2022-09-13T14:45:00.045Z,47.06
2022-09-13T14:50:06.918Z,47.26
2022-09-13T14:55:13.834Z,47.27
2022-09-13T15:00:18.641Z,47.34
2022-09-13T15:05:24.441Z,47.07
2022-09-13T15:10:28.253Z,46.49
2022-09-13T15:15:35.825Z,45.87
2022-09-13T15:20:50.546Z,46.06
2022-09-13T15:25:54.492Z,46.46
2022-09-13T15:30:58.317Z,45.95
2022-09-13T15:36:19.629Z,46.16
2022-09-13T15:41:25.013Z,46.25
2022-09-13T15:46:27.871Z,46.20
2022-09-13T15:51:30.469Z,46.47
2022-09-13T15:56:37.842Z,47.15
2022-09-13T16:01:40.442Z,47.24
2022-09-13T16:06:43.317Z,47.28
2022-09-13T16:11:47.698Z,47.41
2022-09-13T16:16:51.401Z,47.75
2022-09-13T16:21:53.960Z,48.19
2022-09-13T16:27:00.517Z,48.34
2022-09-13T16:32:03.333Z,48.73
2022-09-13T16:37:06.187Z,49.36
2022-09-13T16:42:10.146Z,49.68
2022-09-13T16:47:12.991Z,49.48
2022-09-13T16:52:15.545Z,49.51
2022-09-13T16:57:20.067Z,49.92
2022-09-13T17:02:22.729Z,49.92
2022-09-13T17:07:25.354Z,50.04
2022-09-13T17:12:29.309Z,50.17
2022-09-13T17:17:36.028Z,50.39
2022-09-13T17:22:38.840Z,50.58
2022-09-13T17:27:42.933Z,50.67
2022-09-13T17:32:45.478Z,50.79
2022-09-13T17:37:48.048Z,50.91
2022-09-13T17:42:52.062Z,51.39
2022-09-13T17:47:55.096Z,51.91
2022-09-13T17:52:57.659Z,51.81
2022-09-13T17:58:01.561Z,52.09
2022-09-13T18:03:04.266Z,52.10
2022-09-13T18:08:06.900Z,52.31
2022-09-13T18:13:10.846Z,52.42
2022-09-13T18:18:13.442Z,52.99
2022-09-13T18:23:15.972Z,52.74
2022-09-13T18:28:20.006Z,52.85
2022-09-13T18:33:22.695Z,53.01
2022-09-13T18:38:25.261Z,52.97
2022-09-13T18:43:29.160Z,53.27
2022-09-13T18:48:32.905Z,53.27
2022-09-13T18:53:36.190Z,53.51
2022-09-13T18:58:40.910Z,53.20
2022-09-13T19:03:48.060Z,53.47
2022-09-13T19:08:51.287Z,53.15
2022-09-13T19:13:55.363Z,53.35
2022-09-13T19:18:58.200Z,53.11
2022-09-13T19:24:06.508Z,52.96
2022-09-13T19:29:14.730Z,52.91
2022-09-13T19:34:18.118Z,53.50
2022-09-13T19:39:20.859Z,53.01
2022-09-13T19:44:24.755Z,53.38
2022-09-13T19:49:27.289Z,53.65
2022-09-13T19:54:29.942Z,53.71
2022-09-13T19:59:34.309Z,53.83
2022-09-13T20:04:36.945Z,54.12
2022-09-13T20:09:41.547Z,53.80
2022-09-13T20:14:45.474Z,54.19
2022-09-13T20:19:50.289Z,54.41
2022-09-13T20:24:54.145Z,54.55
2022-09-13T20:29:58.074Z,54.69
2022-09-13T20:35:01.061Z,55.43
2022-09-13T20:40:03.915Z,56.01
2022-09-13T20:45:08.490Z,56.04
2022-09-13T20:50:11.539Z,56.39
2022-09-13T20:55:15.095Z,56.70
2022-09-13T21:00:19.145Z,56.69
2022-09-13T21:05:22.073Z,56.93
2022-09-13T21:10:26.134Z,57.24
2022-09-13T21:15:30.060Z,57.44
2022-09-13T21:20:34.086Z,57.93
2022-09-13T21:25:36.808Z,59.23
2022-09-13T21:30:41.108Z,59.62
2022-09-13T21:35:44.078Z,59.67
2022-09-13T21:40:54.619Z,59.92
2022-09-13T21:46:03.268Z,60.55
2022-09-13T21:51:06.906Z,60.29
2022-09-13T21:56:10.313Z,60.56
2022-09-13T22:01:15.887Z,60.77
2022-09-13T22:06:19.686Z,61.04
2022-09-13T22:11:23.525Z,61.10
2022-09-13T22:16:28.387Z,61.26
2022-09-13T22:21:33.448Z,61.28
2022-09-13T22:26:36.923Z,62.07
2022-09-13T22:31:41.718Z,62.29
2022-09-13T22:36:44.317Z,62.69
2022-09-13T22:41:47.096Z,62.95
2022-09-13T22:46:51.030Z,63.96
2022-09-13T22:51:53.581Z,64.89
2022-09-13T22:56:56.152Z,65.58
2022-09-13T23:02:00.046Z,66.10
2022-09-13T23:07:02.597Z,67.43
2022-09-13T23:12:05.319Z,67.55
2022-09-13T23:17:09.233Z,67.21
2022-09-13T23:22:11.776Z,67.08
2022-09-13T23:27:14.395Z,68.25
2022-09-13T23:32:18.325Z,69.06
2022-09-13T23:37:20.866Z,69.70
2022-09-13T23:42:23.731Z,69.06
2022-09-13T23:47:27.635Z,69.00
2022-09-13T23:52:30.171Z,69.72
2022-09-13T23:57:32.745Z,69.79
